createdAt,value
2023-04-14T00:01:45.993Z,3.50
2023-04-14T00:04:13.121Z,3.07
2023-04-14T00:06:39.995Z,3.00
2023-04-14T00:09:06.801Z,3.33
2023-04-14T00:11:33.626Z,2.83
2023-04-14T00:14:03.072Z,2.80
2023-04-14T00:16:32.922Z,2.93
2023-04-14T00:19:00.032Z,3.00
2023-04-14T00:21:27.128Z,2.97
2023-04-14T00:23:53.903Z,3.20
2023-04-14T00:26:20.794Z,2.93
2023-04-14T00:28:47.713Z,3.47
2023-04-14T00:31:14.650Z,3.17
2023-04-14T00:33:41.516Z,2.87
2023-04-14T00:36:08.494Z,3.43
2023-04-14T00:38:35.339Z,3.30
2023-04-14T00:41:02.127Z,2.73
2023-04-14T00:43:28.925Z,3.33
2023-04-14T00:45:55.874Z,2.67
2023-04-14T00:48:22.860Z,3.30
2023-04-14T00:50:49.847Z,2.73
2023-04-14T00:53:17.426Z,2.90
2023-04-14T00:55:44.458Z,2.73
2023-04-14T00:58:11.508Z,3.00
2023-04-14T01:00:38.484Z,3.80
2023-04-14T01:03:06.518Z,2.97
2023-04-14T01:05:34.597Z,3.10
2023-04-14T01:08:03.506Z,3.47
2023-04-14T01:10:37.876Z,2.70
2023-04-14T01:13:07.573Z,3.07
2023-04-14T01:15:43.661Z,2.87
2023-04-14T01:18:15.709Z,3.37
2023-04-14T01:20:45.802Z,2.70
2023-04-14T01:23:41.078Z,2.90
2023-04-14T01:26:26.113Z,3.03
2023-04-14T01:29:23.606Z,2.93
2023-04-14T01:32:01.057Z,3.27
2023-04-14T01:34:46.168Z,2.97
2023-04-14T01:37:17.895Z,3.10
2023-04-14T01:39:52.976Z,3.03
2023-04-14T01:42:23.786Z,2.73
2023-04-14T01:44:57.171Z,3.10
2023-04-14T01:47:26.017Z,3.07
2023-04-14T01:49:54.101Z,2.77
2023-04-14T01:52:22.432Z,3.73
2023-04-14T01:54:52.450Z,2.93
2023-04-14T01:57:22.886Z,2.97
2023-04-14T01:59:53.048Z,2.87
2023-04-14T02:02:21.417Z,3.60
2023-04-14T02:04:49.910Z,2.80
2023-04-14T02:07:17.651Z,3.03
2023-04-14T02:09:46.071Z,3.27
2023-04-14T02:12:13.047Z,3.10
2023-04-14T02:14:42.642Z,3.20
2023-04-14T02:17:13.904Z,3.07
2023-04-14T02:19:43.981Z,2.57
2023-04-14T02:22:10.869Z,2.83
2023-04-14T02:24:37.827Z,2.70
2023-04-14T02:27:11.242Z,2.70
2023-04-14T02:29:41.903Z,2.37
2023-04-14T02:32:17.440Z,2.23
2023-04-14T02:35:01.361Z,2.60
2023-04-14T02:37:39.138Z,2.23
2023-04-14T02:40:15.409Z,2.70
2023-04-14T02:42:48.211Z,2.90
2023-04-14T02:45:27.784Z,3.17
2023-04-14T02:47:58.354Z,2.90
2023-04-14T02:50:27.191Z,3.10
2023-04-14T02:52:55.988Z,2.90
2023-04-14T02:55:23.622Z,3.50
2023-04-14T02:57:51.677Z,3.40
2023-04-14T03:00:19.434Z,3.80
2023-04-14T03:06:27.857Z,3.20
2023-04-14T03:08:55.221Z,3.40
2023-04-14T03:11:22.789Z,2.73
2023-04-14T03:13:54.652Z,3.33
2023-04-14T03:16:22.365Z,3.23
2023-04-14T03:18:51.048Z,2.80
2023-04-14T03:21:19.381Z,2.97
2023-04-14T03:23:48.569Z,3.27
2023-04-14T03:26:19.146Z,3.57
2023-04-14T03:28:48.573Z,3.70
2023-04-14T03:31:18.806Z,3.47
2023-04-14T03:33:49.230Z,3.13
2023-04-14T03:36:18.017Z,3.20
2023-04-14T03:38:49.439Z,3.13
2023-04-14T03:41:19.643Z,3.97
2023-04-14T03:43:48.303Z,2.90
2023-04-14T03:46:15.355Z,3.20
2023-04-14T03:48:44.390Z,3.47
2023-04-14T03:51:14.100Z,3.57
2023-04-14T03:53:43.473Z,3.23
2023-04-14T03:56:13.561Z,3.40
2023-04-14T03:58:43.970Z,3.63
2023-04-14T04:01:12.178Z,2.90
2023-04-14T04:03:40.104Z,3.63
2023-04-14T04:06:07.929Z,3.60
2023-04-14T04:08:36.405Z,3.40
2023-04-14T04:11:07.595Z,3.40
2023-04-14T04:13:36.764Z,3.03
2023-04-14T04:16:06.969Z,2.90
2023-04-14T04:18:38.476Z,3.30
2023-04-14T04:21:07.031Z,3.50
2023-04-14T04:23:35.618Z,3.03
2023-04-14T04:26:02.586Z,3.00
2023-04-14T04:28:29.618Z,3.00
2023-04-14T04:30:59.112Z,2.97
2023-04-14T04:33:28.789Z,3.17
2023-04-14T04:35:56.839Z,3.20
2023-04-14T04:38:24.113Z,3.20
2023-04-14T04:40:51.038Z,3.37
2023-04-14T04:43:19.287Z,3.70
2023-04-14T04:46:04.649Z,4.00
2023-04-14T04:48:31.508Z,4.17
2023-04-14T04:50:58.265Z,3.30
2023-04-14T04:53:25.147Z,3.30
2023-04-14T04:55:51.998Z,3.50
2023-04-14T04:58:18.806Z,3.23
2023-04-14T05:00:46.612Z,3.23
2023-04-14T05:03:13.535Z,3.43
2023-04-14T05:05:40.770Z,3.07
2023-04-14T05:08:08.395Z,3.50
2023-04-14T05:10:37.098Z,4.40
2023-04-14T05:13:03.941Z,3.43
2023-04-14T05:15:30.763Z,3.20
2023-04-14T05:17:59.228Z,3.40
2023-04-14T05:20:26.352Z,3.77
2023-04-14T05:22:53.392Z,3.70
2023-04-14T05:25:20.242Z,3.60
2023-04-14T05:27:47.035Z,4.07
2023-04-14T05:30:13.949Z,3.10
2023-04-14T05:32:41.317Z,3.40
2023-04-14T05:35:08.877Z,3.63
2023-04-14T05:37:36.380Z,3.10
2023-04-14T05:40:04.162Z,3.47
2023-04-14T05:42:31.032Z,3.50
2023-04-14T05:44:57.991Z,3.10
2023-04-14T05:47:24.833Z,3.60
2023-04-14T05:49:51.785Z,3.70
2023-04-14T05:52:18.594Z,3.27
2023-04-14T05:54:45.449Z,3.50
2023-04-14T05:57:12.207Z,3.13
2023-04-14T05:59:38.967Z,11.20
2023-04-14T06:02:07.397Z,3.83
2023-04-14T06:04:34.512Z,3.63
2023-04-14T06:07:02.986Z,3.50
2023-04-14T06:09:29.918Z,3.60
2023-04-14T06:11:56.895Z,3.93
2023-04-14T06:14:23.844Z,4.10
2023-04-14T06:16:51.105Z,3.73
2023-04-14T06:19:18.867Z,3.93
2023-04-14T06:21:46.729Z,3.60
2023-04-14T06:24:13.653Z,3.60
2023-04-14T06:26:40.517Z,3.10
2023-04-14T06:29:07.940Z,3.53
2023-04-14T06:31:35.902Z,3.17
2023-04-14T06:34:02.849Z,4.00
2023-04-14T06:36:29.710Z,3.53
2023-04-14T06:38:57.290Z,3.30
2023-04-14T06:41:24.808Z,3.27
2023-04-14T06:43:51.557Z,3.33
2023-04-14T06:46:19.071Z,4.00
2023-04-14T06:48:45.910Z,3.30
2023-04-14T06:51:13.732Z,3.50
2023-04-14T06:53:40.838Z,3.23
2023-04-14T06:56:08.275Z,3.70
2023-04-14T06:58:35.230Z,3.80
2023-04-14T07:01:03.555Z,3.60
2023-04-14T07:03:31.374Z,3.03
2023-04-14T07:06:10.590Z,2.63
2023-04-14T07:08:38.794Z,3.13
2023-04-14T07:11:08.716Z,2.77
2023-04-14T07:13:36.305Z,3.10
2023-04-14T07:16:04.091Z,2.93
2023-04-14T07:18:31.887Z,3.00
2023-04-14T07:20:59.906Z,2.30
2023-04-14T07:23:27.362Z,2.63
2023-04-14T07:25:56.209Z,2.60
2023-04-14T07:28:24.386Z,2.73
2023-04-14T07:30:52.795Z,2.53
2023-04-14T07:33:20.312Z,2.60
2023-04-14T07:36:00.765Z,2.10
2023-04-14T07:38:28.720Z,2.57
2023-04-14T07:40:55.711Z,2.47
2023-04-14T07:43:23.184Z,2.90
2023-04-14T07:45:50.102Z,2.90
2023-04-14T07:48:19.497Z,2.40
2023-04-14T07:50:48.615Z,2.70
2023-04-14T07:53:15.466Z,2.70
2023-04-14T07:55:42.274Z,3.13
2023-04-14T07:58:09.103Z,2.77
2023-04-14T08:00:35.904Z,3.17
2023-04-14T08:03:03.319Z,4.17
2023-04-14T08:05:30.408Z,2.83
2023-04-14T08:07:57.302Z,2.43
2023-04-14T08:10:24.474Z,1.90
2023-04-14T08:12:51.423Z,2.57
2023-04-14T08:15:18.461Z,1.60
2023-04-14T08:17:45.709Z,2.33
2023-04-14T08:20:12.639Z,2.10
2023-04-14T08:22:39.482Z,2.03
2023-04-14T08:25:06.861Z,1.90
2023-04-14T08:27:33.608Z,1.40
2023-04-14T08:30:00.574Z,1.60
2023-04-14T08:32:28.392Z,1.80
2023-04-14T08:35:37.437Z,1.87
2023-04-14T08:37:42.520Z,1.80
2023-04-14T08:40:10.356Z,1.87
2023-04-14T08:42:37.662Z,1.63
2023-04-14T08:45:05.144Z,1.80
2023-04-14T08:47:35.522Z,1.53
2023-04-14T08:50:09.872Z,1.60
2023-04-14T08:52:39.780Z,1.83
2023-04-14T08:55:08.129Z,1.80
2023-04-14T08:57:35.315Z,1.63
2023-04-14T09:00:05.033Z,1.70
2023-04-14T09:02:35.912Z,1.40
2023-04-14T09:05:03.709Z,2.00
2023-04-14T09:07:31.218Z,1.87
2023-04-14T09:09:58.475Z,1.60
2023-04-14T09:12:27.525Z,1.30
2023-04-14T09:14:57.135Z,1.43
2023-04-14T09:17:26.624Z,1.40
2023-04-14T09:20:36.046Z,1.30
2023-04-14T09:22:40.600Z,1.57
2023-04-14T09:25:10.162Z,1.30
2023-04-14T09:27:37.753Z,1.50
2023-04-14T09:30:05.511Z,1.57
2023-04-14T09:32:32.963Z,1.53
2023-04-14T09:34:59.817Z,0.97
2023-04-14T09:37:26.772Z,1.00
2023-04-14T09:39:55.669Z,1.27
2023-04-14T09:42:41.038Z,1.20
2023-04-14T09:45:08.560Z,1.20
2023-04-14T09:47:35.819Z,1.17
2023-04-14T09:50:04.298Z,1.00
2023-04-14T09:52:41.980Z,1.30
2023-04-14T09:55:16.902Z,1.67
2023-04-14T09:57:47.450Z,1.30
2023-04-14T10:00:18.824Z,1.20
2023-04-14T10:02:56.042Z,1.10
2023-04-14T10:05:32.189Z,1.47
2023-04-14T10:08:05.844Z,1.27
2023-04-14T10:10:32.756Z,1.53
2023-04-14T10:13:00.990Z,1.20
2023-04-14T10:15:28.231Z,1.40
2023-04-14T10:17:56.599Z,1.10
2023-04-14T10:20:24.847Z,1.20
2023-04-14T10:22:52.819Z,1.03
2023-04-14T10:25:20.297Z,0.90
2023-04-14T10:27:49.105Z,1.30
2023-04-14T10:30:16.984Z,1.23
2023-04-14T10:32:47.323Z,1.20
2023-04-14T10:35:18.654Z,0.90
2023-04-14T10:37:52.105Z,1.40
2023-04-14T10:40:19.182Z,1.47
2023-04-14T10:42:53.370Z,1.20
2023-04-14T10:45:20.554Z,1.17
2023-04-14T10:47:47.867Z,1.10
2023-04-14T10:50:18.092Z,1.17
2023-04-14T10:52:58.967Z,1.17
2023-04-14T10:55:28.058Z,1.20
2023-04-14T10:58:05.939Z,1.30
2023-04-14T11:00:38.253Z,1.40
2023-04-14T11:03:11.078Z,1.50
2023-04-14T11:05:48.212Z,1.30
2023-04-14T11:08:26.669Z,1.20
2023-04-14T11:11:07.144Z,1.40
2023-04-14T11:13:34.850Z,1.27
2023-04-14T11:16:05.317Z,1.13
2023-04-14T11:18:38.838Z,1.00
2023-04-14T11:21:10.701Z,1.20
2023-04-14T11:23:38.518Z,1.07
2023-04-14T11:26:06.559Z,1.17
2023-04-14T11:28:36.260Z,1.23
2023-04-14T11:31:05.524Z,1.50
2023-04-14T11:33:34.702Z,1.27
2023-04-14T11:36:02.939Z,0.97
2023-04-14T11:38:30.570Z,1.57
2023-04-14T11:40:57.580Z,1.00
2023-04-14T11:43:25.062Z,1.10
2023-04-14T11:45:52.610Z,1.10
2023-04-14T11:48:20.410Z,1.30
2023-04-14T11:50:48.372Z,1.23
2023-04-14T11:53:17.648Z,1.47
2023-04-14T11:55:46.991Z,0.77
2023-04-14T11:58:15.321Z,1.00
2023-04-14T12:00:43.569Z,1.10
2023-04-14T12:03:11.055Z,0.83
2023-04-14T12:05:38.053Z,1.20
2023-04-14T12:08:12.217Z,1.60
2023-04-14T12:10:42.847Z,0.90
2023-04-14T12:13:11.377Z,1.17
2023-04-14T12:15:40.759Z,1.47
2023-04-14T12:18:09.597Z,1.57
2023-04-14T12:20:47.403Z,1.77
2023-04-14T12:23:15.852Z,1.10
2023-04-14T12:25:42.927Z,1.17
2023-04-14T12:28:09.968Z,1.17
2023-04-14T12:30:37.682Z,1.20
2023-04-14T12:33:12.225Z,0.90
2023-04-14T12:35:40.855Z,1.03
2023-04-14T12:38:13.411Z,1.97
2023-04-14T12:40:45.923Z,1.20
2023-04-14T12:43:14.045Z,1.17
2023-04-14T12:45:46.425Z,1.10
2023-04-14T12:48:14.226Z,1.10
2023-04-14T12:50:41.081Z,1.83
2023-04-14T12:53:28.535Z,1.17
2023-04-14T12:56:10.467Z,1.30
2023-04-14T12:58:39.009Z,1.33
2023-04-14T13:01:10.651Z,2.93
2023-04-14T13:03:52.581Z,1.17
2023-04-14T13:06:21.416Z,0.97
2023-04-14T13:08:53.037Z,0.90
2023-04-14T13:11:21.748Z,1.17
2023-04-14T13:13:49.016Z,1.10
2023-04-14T13:16:20.542Z,1.13
2023-04-14T13:18:49.154Z,1.33
2023-04-14T13:21:16.751Z,1.07
2023-04-14T13:23:43.885Z,1.20
2023-04-14T13:26:10.880Z,0.87
2023-04-14T13:28:37.934Z,1.00
2023-04-14T13:31:04.995Z,1.20
2023-04-14T13:33:32.972Z,1.17
2023-04-14T13:36:01.134Z,1.13
2023-04-14T13:38:28.162Z,1.00
2023-04-14T13:40:55.076Z,0.80
2023-04-14T13:43:23.291Z,0.90
2023-04-14T13:45:50.234Z,0.87
2023-04-14T13:48:17.264Z,1.07
2023-04-14T13:50:44.147Z,1.10
2023-04-14T13:53:12.396Z,1.03
2023-04-14T13:55:39.458Z,0.90
2023-04-14T13:58:06.430Z,1.23
2023-04-14T14:00:33.258Z,0.90
2023-04-14T14:03:00.583Z,0.90
2023-04-14T14:05:27.632Z,0.90
2023-04-14T14:07:55.741Z,0.70
2023-04-14T14:10:22.694Z,1.20
2023-04-14T14:12:49.476Z,0.63
2023-04-14T14:15:16.651Z,1.10
2023-04-14T14:17:43.512Z,0.80
2023-04-14T14:20:10.710Z,1.10
2023-04-14T14:22:37.584Z,0.90
2023-04-14T14:25:18.379Z,1.00
2023-04-14T14:27:47.020Z,0.80
2023-04-14T14:30:14.021Z,1.30
2023-04-14T14:32:40.934Z,1.00
2023-04-14T14:35:08.297Z,1.10
2023-04-14T14:37:35.215Z,0.73
2023-04-14T14:40:02.129Z,0.90
2023-04-14T14:42:31.822Z,0.90
2023-04-14T14:44:59.641Z,1.00
2023-04-14T14:47:28.720Z,1.17
2023-04-14T14:50:01.710Z,0.70
2023-04-14T14:52:34.145Z,1.07
2023-04-14T14:55:01.477Z,0.80
2023-04-14T14:57:29.738Z,0.93
2023-04-14T14:59:57.213Z,1.03
2023-04-14T15:02:25.642Z,0.90
2023-04-14T15:04:53.310Z,0.93
2023-04-14T15:07:20.835Z,0.80
2023-04-14T15:09:47.958Z,0.80
2023-04-14T15:12:14.815Z,0.70
2023-04-14T15:14:41.709Z,0.77
2023-04-14T15:17:08.579Z,1.27
2023-04-14T15:19:35.531Z,0.83
2023-04-14T15:22:02.359Z,0.93
2023-04-14T15:24:29.189Z,1.00
2023-04-14T15:26:56.286Z,1.10
2023-04-14T15:29:25.909Z,1.10
2023-04-14T15:31:52.843Z,0.73
2023-04-14T15:34:19.718Z,1.00
2023-04-14T15:36:46.529Z,2.40
2023-04-14T15:39:13.355Z,1.33
2023-04-14T15:41:40.998Z,1.33
2023-04-14T15:44:07.801Z,1.17
2023-04-14T15:46:34.797Z,1.00
2023-04-14T15:49:01.597Z,0.80
2023-04-14T15:51:28.367Z,0.93
2023-04-14T15:53:55.353Z,0.90
2023-04-14T15:56:23.609Z,0.70
2023-04-14T15:58:50.684Z,0.70
2023-04-14T16:01:17.729Z,0.53
2023-04-14T16:03:44.911Z,0.70
2023-04-14T16:06:12.348Z,0.70
2023-04-14T16:08:39.409Z,0.87
2023-04-14T16:11:06.265Z,0.83
2023-04-14T16:13:33.210Z,1.30
2023-04-14T16:16:00.207Z,1.00
2023-04-14T16:18:27.174Z,1.10
2023-04-14T16:20:54.101Z,1.40
2023-04-14T16:23:21.988Z,1.17
2023-04-14T16:25:51.909Z,1.07
2023-04-14T16:28:19.008Z,1.17
2023-04-14T16:30:45.875Z,1.20
2023-04-14T16:33:13.004Z,1.10
2023-04-14T16:35:40.533Z,1.50
2023-04-14T16:38:08.812Z,1.40
2023-04-14T16:40:36.565Z,1.03
2023-04-14T16:43:04.527Z,1.20
2023-04-14T16:45:32.378Z,1.20
2023-04-14T16:47:59.553Z,1.20
2023-04-14T16:50:26.983Z,1.10
2023-04-14T16:52:53.895Z,1.20
2023-04-14T16:55:20.743Z,1.10
2023-04-14T16:57:47.576Z,1.10
2023-04-14T17:00:14.801Z,1.10
2023-04-14T17:02:41.847Z,0.83
2023-04-14T17:05:10.573Z,1.07
2023-04-14T17:07:37.707Z,1.37
2023-04-14T17:10:05.173Z,0.77
2023-04-14T17:12:32.236Z,1.07
2023-04-14T17:15:00.355Z,0.70
2023-04-14T17:17:28.513Z,1.20
2023-04-14T17:19:56.839Z,1.10
2023-04-14T17:22:24.647Z,0.97
2023-04-14T17:24:52.191Z,1.10
2023-04-14T17:27:19.370Z,1.20
2023-04-14T17:29:46.458Z,1.07
2023-04-14T17:32:13.672Z,1.20
2023-04-14T17:34:40.557Z,1.10
2023-04-14T17:37:07.445Z,1.03
2023-04-14T17:39:34.493Z,1.40
2023-04-14T17:42:01.568Z,1.60
2023-04-14T17:44:33.321Z,1.13
2023-04-14T17:47:11.133Z,1.47
2023-04-14T17:49:38.322Z,1.03
2023-04-14T17:52:07.030Z,1.37
2023-04-14T17:54:34.356Z,1.23
2023-04-14T17:57:01.141Z,1.73
2023-04-14T17:59:28.041Z,1.30
2023-04-14T18:01:55.079Z,1.37
2023-04-14T18:04:22.103Z,1.20
2023-04-14T18:06:49.106Z,1.40
2023-04-14T18:09:15.886Z,1.40
2023-04-14T18:11:42.826Z,1.57
2023-04-14T18:14:09.632Z,1.40
2023-04-14T18:16:37.454Z,1.87
2023-04-14T18:19:04.807Z,2.00
2023-04-14T18:21:31.744Z,2.00
2023-04-14T18:26:28.398Z,2.00
2023-04-14T18:28:57.404Z,1.80
2023-04-14T18:31:25.217Z,1.67
2023-04-14T18:33:52.085Z,1.83
2023-04-14T18:36:18.892Z,1.90
2023-04-14T18:38:45.726Z,2.03
2023-04-14T18:41:12.570Z,1.80
2023-04-14T18:43:39.486Z,1.93
2023-04-14T18:46:06.593Z,2.33
2023-04-14T18:48:33.556Z,2.10
2023-04-14T18:51:04.137Z,2.27
2023-04-14T18:53:31.831Z,2.63
2023-04-14T18:55:58.794Z,3.37
2023-04-14T18:58:25.733Z,2.13
2023-04-14T19:00:52.631Z,2.50
2023-04-14T19:03:19.637Z,2.10
2023-04-14T19:05:47.254Z,2.47
2023-04-14T19:08:14.097Z,2.30
2023-04-14T19:10:41.098Z,1.90
2023-04-14T19:13:08.055Z,2.40
2023-04-14T19:15:34.866Z,1.83
2023-04-14T19:18:03.673Z,2.83
2023-04-14T19:20:30.960Z,2.07
2023-04-14T19:22:58.518Z,3.83
2023-04-14T19:25:25.422Z,2.30
2023-04-14T19:27:52.311Z,4.10
2023-04-14T19:30:19.600Z,3.07
2023-04-14T19:32:46.590Z,2.33
2023-04-14T19:35:13.534Z,2.30
2023-04-14T19:37:40.606Z,2.20
2023-04-14T19:40:08.170Z,2.20
2023-04-14T19:42:35.006Z,2.67
2023-04-14T19:45:02.069Z,2.27
2023-04-14T19:47:28.954Z,2.33
2023-04-14T19:49:59.541Z,2.43
2023-04-14T19:52:26.886Z,2.60
2023-04-14T19:54:55.009Z,2.30
2023-04-14T19:57:22.468Z,2.33
2023-04-14T19:59:49.266Z,2.70
2023-04-14T20:02:16.415Z,2.63
2023-04-14T20:04:45.064Z,3.17
2023-04-14T20:07:12.031Z,2.93
2023-04-14T20:09:44.737Z,2.90
2023-04-14T20:12:11.582Z,3.00
2023-04-14T20:14:39.064Z,2.70
2023-04-14T20:17:06.261Z,2.90
2023-04-14T20:19:33.129Z,3.63
2023-04-14T20:21:59.972Z,3.63
2023-04-14T20:24:26.826Z,3.47
2023-04-14T20:26:53.581Z,3.63
2023-04-14T20:29:20.432Z,2.87
2023-04-14T20:31:48.381Z,3.07
2023-04-14T20:34:15.226Z,3.10
2023-04-14T20:36:44.864Z,2.67
2023-04-14T20:39:11.838Z,2.63
2023-04-14T20:41:38.772Z,3.27
2023-04-14T20:44:06.391Z,3.20
2023-04-14T20:46:33.705Z,3.30
2023-04-14T20:49:01.347Z,3.20
2023-04-14T20:51:29.051Z,3.00
2023-04-14T20:53:56.849Z,2.70
2023-04-14T20:56:27.216Z,2.37
2023-04-14T20:58:54.212Z,2.70
2023-04-14T21:01:21.328Z,2.47
2023-04-14T21:03:48.489Z,2.37
2023-04-14T21:06:16.157Z,2.70
2023-04-14T21:08:43.034Z,3.37
2023-04-14T21:11:17.093Z,2.83
2023-04-14T21:15:30.284Z,2.23
2023-04-14T21:16:35.741Z,2.70
2023-04-14T21:19:04.196Z,2.40
2023-04-14T21:21:31.838Z,2.50
2023-04-14T21:23:58.901Z,2.60
2023-04-14T21:26:26.951Z,2.47
2023-04-14T21:28:54.108Z,3.43
2023-04-14T21:31:21.111Z,3.27
2023-04-14T21:33:47.966Z,3.57
2023-04-14T21:36:14.918Z,3.13
2023-04-14T21:38:41.754Z,3.37
2023-04-14T21:41:08.753Z,3.00
2023-04-14T21:43:36.764Z,3.13
2023-04-14T21:46:05.242Z,3.20
2023-04-14T21:48:32.345Z,3.10
2023-04-14T21:50:59.260Z,3.20
2023-04-14T21:53:26.310Z,3.07
2023-04-14T21:56:09.278Z,3.60
2023-04-14T21:58:38.523Z,3.50
2023-04-14T22:01:05.544Z,3.50
2023-04-14T22:03:33.263Z,3.07
2023-04-14T22:06:00.319Z,3.30
2023-04-14T22:08:27.282Z,3.63
2023-04-14T22:10:54.923Z,3.20
2023-04-14T22:13:21.887Z,2.63
2023-04-14T22:15:49.925Z,3.03
2023-04-14T22:18:17.222Z,2.93
2023-04-14T22:20:45.180Z,3.00
2023-04-14T22:23:13.303Z,2.67
2023-04-14T22:25:40.335Z,2.53
2023-04-14T22:28:07.563Z,3.07
2023-04-14T22:30:35.275Z,2.90
2023-04-14T22:33:02.542Z,2.87
2023-04-14T22:35:30.167Z,3.00
2023-04-14T22:37:57.437Z,2.70
2023-04-14T22:40:24.640Z,2.80
2023-04-14T22:42:51.808Z,2.67
2023-04-14T22:45:18.784Z,2.87
2023-04-14T22:47:45.938Z,2.97
2023-04-14T22:50:13.044Z,2.77
2023-04-14T22:52:39.888Z,3.03
2023-04-14T22:55:07.797Z,3.40
2023-04-14T22:57:34.591Z,3.27
2023-04-14T23:00:01.641Z,3.00
2023-04-14T23:02:28.823Z,2.60
2023-04-14T23:04:55.863Z,3.10
2023-04-14T23:07:22.840Z,3.30
2023-04-14T23:09:49.806Z,3.33
2023-04-14T23:12:17.222Z,3.30
2023-04-14T23:14:44.033Z,2.93
2023-04-14T23:17:11.809Z,3.57
2023-04-14T23:19:39.298Z,3.67
2023-04-14T23:22:06.121Z,3.43
2023-04-14T23:24:33.014Z,3.47
2023-04-14T23:27:00.464Z,3.27
2023-04-14T23:29:27.645Z,3.23
2023-04-14T23:31:54.630Z,3.37
2023-04-14T23:34:21.626Z,3.40
2023-04-14T23:36:48.473Z,3.70
2023-04-14T23:39:15.399Z,3.43
2023-04-14T23:41:42.652Z,3.63
2023-04-14T23:44:09.536Z,3.90
2023-04-14T23:46:36.525Z,3.43
2023-04-14T23:49:11.268Z,3.23
2023-04-14T23:51:50.746Z,3.23
2023-04-14T23:54:17.625Z,3.40
2023-04-14T23:56:44.473Z,2.97
2023-04-14T23:59:11.926Z,3.60
